sensor_id;sensor_type;location;lat;lon;timestamp;P1;durP1;ratioP1;P2;durP2;ratioP2
15273;SDS011;7738;49.532;11.156;2022-07-06T00:01:42;2.08;;;1.00;;
15273;SDS011;7738;49.532;11.156;2022-07-06T00:04:12;1.80;;;1.08;;
15273;SDS011;7738;49.532;11.156;2022-07-06T00:06:42;1.77;;;1.00;;
15273;SDS011;7738;49.532;11.156;2022-07-06T00:09:13;1.25;;;0.98;;
15273;SDS011;7738;49.532;11.156;2022-07-06T00:11:43;1.27;;;0.82;;
15273;SDS011;7738;49.532;11.156;2022-07-06T00:14:13;1.38;;;0.77;;
15273;SDS011;7738;49.532;11.156;2022-07-06T00:16:46;1.98;;;0.80;;
15273;SDS011;7738;49.532;11.156;2022-07-06T00:19:16;2.42;;;0.93;;
15273;SDS011;7738;49.532;11.156;2022-07-06T00:21:47;1.35;;;1.00;;
15273;SDS011;7738;49.532;11.156;2022-07-06T00:24:17;1.67;;;0.90;;
15273;SDS011;7738;49.532;11.156;2022-07-06T00:26:47;1.70;;;0.90;;
15273;SDS011;7738;49.532;11.156;2022-07-06T00:29:17;3.15;;;1.20;;
15273;SDS011;7738;49.532;11.156;2022-07-06T00:31:50;1.60;;;0.90;;
15273;SDS011;7738;49.532;11.156;2022-07-06T00:34:21;2.13;;;1.00;;
15273;SDS011;7738;49.532;11.156;2022-07-06T00:36:51;1.80;;;1.05;;
15273;SDS011;7738;49.532;11.156;2022-07-06T00:39:21;2.63;;;1.05;;
15273;SDS011;7738;49.532;11.156;2022-07-06T00:41:56;1.48;;;0.73;;
15273;SDS011;7738;49.532;11.156;2022-07-06T00:44:26;2.42;;;1.00;;
15273;SDS011;7738;49.532;11.156;2022-07-06T00:46:59;1.73;;;1.20;;
15273;SDS011;7738;49.532;11.156;2022-07-06T00:49:29;2.23;;;1.37;;
15273;SDS011;7738;49.532;11.156;2022-07-06T00:52:21;2.45;;;1.08;;
15273;SDS011;7738;49.532;11.156;2022-07-06T00:54:51;1.80;;;1.38;;
15273;SDS011;7738;49.532;11.156;2022-07-06T00:57:21;3.40;;;1.38;;
15273;SDS011;7738;49.532;11.156;2022-07-06T00:59:51;3.55;;;1.30;;
15273;SDS011;7738;49.532;11.156;2022-07-06T01:02:24;1.17;;;1.00;;
15273;SDS011;7738;49.532;11.156;2022-07-06T01:04:54;1.67;;;1.05;;
15273;SDS011;7738;49.532;11.156;2022-07-06T01:07:25;2.47;;;1.17;;
15273;SDS011;7738;49.532;11.156;2022-07-06T01:09:55;2.58;;;1.65;;
15273;SDS011;7738;49.532;11.156;2022-07-06T01:12:25;2.50;;;1.35;;
15273;SDS011;7738;49.532;11.156;2022-07-06T01:14:56;2.13;;;1.80;;
15273;SDS011;7738;49.532;11.156;2022-07-06T01:17:29;4.38;;;1.80;;
15273;SDS011;7738;49.532;11.156;2022-07-06T01:20:07;1.70;;;1.42;;
15273;SDS011;7738;49.532;11.156;2022-07-06T01:22:38;2.17;;;1.20;;
15273;SDS011;7738;49.532;11.156;2022-07-06T01:25:08;2.38;;;1.92;;
15273;SDS011;7738;49.532;11.156;2022-07-06T01:27:40;3.25;;;2.00;;
15273;SDS011;7738;49.532;11.156;2022-07-06T01:30:11;7.07;;;2.38;;
15273;SDS011;7738;49.532;11.156;2022-07-06T01:32:42;3.95;;;1.50;;
15273;SDS011;7738;49.532;11.156;2022-07-06T01:35:17;3.85;;;1.55;;
15273;SDS011;7738;49.532;11.156;2022-07-06T01:37:47;2.50;;;1.20;;
15273;SDS011;7738;49.532;11.156;2022-07-06T01:40:18;2.50;;;1.42;;
15273;SDS011;7738;49.532;11.156;2022-07-06T01:42:48;3.95;;;1.55;;
15273;SDS011;7738;49.532;11.156;2022-07-06T01:45:18;3.75;;;1.63;;
15273;SDS011;7738;49.532;11.156;2022-07-06T01:47:48;1.42;;;1.33;;
15273;SDS011;7738;49.532;11.156;2022-07-06T01:50:21;6.18;;;1.55;;
15273;SDS011;7738;49.532;11.156;2022-07-06T01:52:51;3.77;;;1.77;;
15273;SDS011;7738;49.532;11.156;2022-07-06T01:55:22;2.25;;;1.35;;
15273;SDS011;7738;49.532;11.156;2022-07-06T01:57:52;3.78;;;1.15;;
15273;SDS011;7738;49.532;11.156;2022-07-06T02:00:23;3.13;;;1.70;;
15273;SDS011;7738;49.532;11.156;2022-07-06T02:02:53;2.42;;;1.40;;
15273;SDS011;7738;49.532;11.156;2022-07-06T02:05:26;2.15;;;1.40;;
15273;SDS011;7738;49.532;11.156;2022-07-06T02:07:57;4.97;;;1.10;;
15273;SDS011;7738;49.532;11.156;2022-07-06T02:10:27;5.28;;;1.33;;
15273;SDS011;7738;49.532;11.156;2022-07-06T02:12:58;3.45;;;1.10;;
15273;SDS011;7738;49.532;11.156;2022-07-06T02:15:28;1.77;;;1.30;;
15273;SDS011;7738;49.532;11.156;2022-07-06T02:17:59;2.47;;;1.20;;
15273;SDS011;7738;49.532;11.156;2022-07-06T02:20:32;1.55;;;1.20;;
15273;SDS011;7738;49.532;11.156;2022-07-06T02:23:02;2.60;;;1.20;;
15273;SDS011;7738;49.532;11.156;2022-07-06T02:25:33;3.88;;;1.33;;
15273;SDS011;7738;49.532;11.156;2022-07-06T02:28:03;2.40;;;1.30;;
15273;SDS011;7738;49.532;11.156;2022-07-06T02:30:34;2.00;;;1.08;;
15273;SDS011;7738;49.532;11.156;2022-07-06T02:33:04;3.38;;;1.25;;
15273;SDS011;7738;49.532;11.156;2022-07-06T02:35:37;5.57;;;1.45;;
15273;SDS011;7738;49.532;11.156;2022-07-06T02:38:10;3.83;;;1.45;;
15273;SDS011;7738;49.532;11.156;2022-07-06T02:40:41;2.10;;;1.45;;
15273;SDS011;7738;49.532;11.156;2022-07-06T02:43:11;2.22;;;1.35;;
15273;SDS011;7738;49.532;11.156;2022-07-06T02:45:42;4.50;;;1.35;;
15273;SDS011;7738;49.532;11.156;2022-07-06T02:48:13;1.80;;;1.13;;
15273;SDS011;7738;49.532;11.156;2022-07-06T02:50:46;1.50;;;1.30;;
15273;SDS011;7738;49.532;11.156;2022-07-06T02:53:17;2.03;;;1.23;;
15273;SDS011;7738;49.532;11.156;2022-07-06T02:55:51;4.32;;;1.73;;
15273;SDS011;7738;49.532;11.156;2022-07-06T02:58:21;2.13;;;1.23;;
15273;SDS011;7738;49.532;11.156;2022-07-06T03:00:52;4.78;;;1.33;;
15273;SDS011;7738;49.532;11.156;2022-07-06T03:03:22;3.90;;;1.60;;
15273;SDS011;7738;49.532;11.156;2022-07-06T03:05:55;2.72;;;1.40;;
15273;SDS011;7738;49.532;11.156;2022-07-06T03:08:27;1.90;;;1.40;;
15273;SDS011;7738;49.532;11.156;2022-07-06T03:10:58;3.38;;;1.38;;
15273;SDS011;7738;49.532;11.156;2022-07-06T03:13:29;2.85;;;1.67;;
15273;SDS011;7738;49.532;11.156;2022-07-06T03:15:59;1.45;;;1.27;;
15273;SDS011;7738;49.532;11.156;2022-07-06T03:18:30;7.88;;;1.50;;
15273;SDS011;7738;49.532;11.156;2022-07-06T03:21:03;3.08;;;1.60;;
15273;SDS011;7738;49.532;11.156;2022-07-06T03:23:33;2.58;;;1.83;;
15273;SDS011;7738;49.532;11.156;2022-07-06T03:26:04;3.65;;;1.25;;
15273;SDS011;7738;49.532;11.156;2022-07-06T03:28:36;1.95;;;1.73;;
15273;SDS011;7738;49.532;11.156;2022-07-06T03:31:06;2.45;;;1.83;;
15273;SDS011;7738;49.532;11.156;2022-07-06T03:33:37;2.70;;;1.73;;
15273;SDS011;7738;49.532;11.156;2022-07-06T03:36:11;2.00;;;1.60;;
15273;SDS011;7738;49.532;11.156;2022-07-06T03:38:41;2.83;;;1.70;;
15273;SDS011;7738;49.532;11.156;2022-07-06T03:41:12;2.65;;;1.45;;
15273;SDS011;7738;49.532;11.156;2022-07-06T03:43:42;2.15;;;1.80;;
15273;SDS011;7738;49.532;11.156;2022-07-06T03:46:13;5.10;;;1.98;;
15273;SDS011;7738;49.532;11.156;2022-07-06T03:48:43;5.53;;;1.52;;
15273;SDS011;7738;49.532;11.156;2022-07-06T03:51:16;2.92;;;1.40;;
15273;SDS011;7738;49.532;11.156;2022-07-06T03:53:47;4.45;;;1.85;;
15273;SDS011;7738;49.532;11.156;2022-07-06T03:56:18;2.20;;;1.45;;
15273;SDS011;7738;49.532;11.156;2022-07-06T03:59:07;3.67;;;1.77;;
15273;SDS011;7738;49.532;11.156;2022-07-06T04:01:37;2.85;;;1.80;;
15273;SDS011;7738;49.532;11.156;2022-07-06T04:04:11;2.13;;;1.83;;
15273;SDS011;7738;49.532;11.156;2022-07-06T04:06:46;3.92;;;2.15;;
15273;SDS011;7738;49.532;11.156;2022-07-06T04:09:18;4.50;;;2.03;;
15273;SDS011;7738;49.532;11.156;2022-07-06T04:11:48;4.68;;;1.65;;
15273;SDS011;7738;49.532;11.156;2022-07-06T04:14:19;2.30;;;1.70;;
15273;SDS011;7738;49.532;11.156;2022-07-06T04:16:49;4.60;;;1.70;;
15273;SDS011;7738;49.532;11.156;2022-07-06T04:19:19;3.83;;;1.90;;
15273;SDS011;7738;49.532;11.156;2022-07-06T04:21:52;2.35;;;1.55;;
15273;SDS011;7738;49.532;11.156;2022-07-06T04:24:22;3.53;;;1.90;;
15273;SDS011;7738;49.532;11.156;2022-07-06T04:26:53;1.70;;;1.60;;
15273;SDS011;7738;49.532;11.156;2022-07-06T04:29:23;8.05;;;2.85;;
15273;SDS011;7738;49.532;11.156;2022-07-06T04:31:53;4.68;;;2.90;;
15273;SDS011;7738;49.532;11.156;2022-07-06T04:34:23;5.25;;;2.00;;
15273;SDS011;7738;49.532;11.156;2022-07-06T04:36:57;3.05;;;2.08;;
15273;SDS011;7738;49.532;11.156;2022-07-06T04:39:28;4.72;;;2.25;;
15273;SDS011;7738;49.532;11.156;2022-07-06T04:42:00;6.72;;;2.25;;
15273;SDS011;7738;49.532;11.156;2022-07-06T04:44:30;3.72;;;2.45;;
15273;SDS011;7738;49.532;11.156;2022-07-06T04:47:00;2.50;;;2.30;;
15273;SDS011;7738;49.532;11.156;2022-07-06T04:49:31;5.38;;;2.30;;
15273;SDS011;7738;49.532;11.156;2022-07-06T04:52:04;3.17;;;2.30;;
15273;SDS011;7738;49.532;11.156;2022-07-06T04:54:35;6.28;;;2.65;;
15273;SDS011;7738;49.532;11.156;2022-07-06T04:57:05;4.22;;;2.22;;
15273;SDS011;7738;49.532;11.156;2022-07-06T05:02:10;3.83;;;1.98;;
15273;SDS011;7738;49.532;11.156;2022-07-06T05:04:40;1.80;;;1.60;;
15273;SDS011;7738;49.532;11.156;2022-07-06T05:07:14;2.33;;;2.13;;
15273;SDS011;7738;49.532;11.156;2022-07-06T05:09:45;4.57;;;2.20;;
15273;SDS011;7738;49.532;11.156;2022-07-06T05:12:18;3.72;;;1.83;;
15273;SDS011;7738;49.532;11.156;2022-07-06T05:14:49;3.25;;;1.70;;
15273;SDS011;7738;49.532;11.156;2022-07-06T05:17:20;7.18;;;2.28;;
15273;SDS011;7738;49.532;11.156;2022-07-06T05:19:57;2.42;;;1.83;;
15273;SDS011;7738;49.532;11.156;2022-07-06T05:22:34;3.30;;;1.85;;
15273;SDS011;7738;49.532;11.156;2022-07-06T05:25:12;5.10;;;1.98;;
15273;SDS011;7738;49.532;11.156;2022-07-06T05:27:43;2.83;;;1.92;;
15273;SDS011;7738;49.532;11.156;2022-07-06T05:30:13;3.55;;;2.17;;
15273;SDS011;7738;49.532;11.156;2022-07-06T05:32:44;5.65;;;2.00;;
15273;SDS011;7738;49.532;11.156;2022-07-06T05:35:14;3.67;;;1.88;;
15273;SDS011;7738;49.532;11.156;2022-07-06T05:38:10;3.15;;;1.95;;
15273;SDS011;7738;49.532;11.156;2022-07-06T05:40:44;2.17;;;1.58;;
15273;SDS011;7738;49.532;11.156;2022-07-06T05:43:15;6.65;;;1.98;;
15273;SDS011;7738;49.532;11.156;2022-07-06T05:45:46;12.40;;;2.47;;
15273;SDS011;7738;49.532;11.156;2022-07-06T05:48:18;2.92;;;2.08;;
15273;SDS011;7738;49.532;11.156;2022-07-06T05:51:02;4.32;;;1.23;;
15273;SDS011;7738;49.532;11.156;2022-07-06T05:53:34;2.90;;;1.55;;
15273;SDS011;7738;49.532;11.156;2022-07-06T05:56:04;3.17;;;1.30;;
15273;SDS011;7738;49.532;11.156;2022-07-06T05:58:37;5.50;;;1.83;;
15273;SDS011;7738;49.532;11.156;2022-07-06T06:01:07;4.18;;;1.80;;
15273;SDS011;7738;49.532;11.156;2022-07-06T06:03:40;5.45;;;2.05;;
15273;SDS011;7738;49.532;11.156;2022-07-06T06:06:12;4.57;;;1.90;;
15273;SDS011;7738;49.532;11.156;2022-07-06T06:08:45;4.10;;;1.95;;
15273;SDS011;7738;49.532;11.156;2022-07-06T06:11:15;2.45;;;1.75;;
15273;SDS011;7738;49.532;11.156;2022-07-06T06:13:45;3.03;;;1.52;;
15273;SDS011;7738;49.532;11.156;2022-07-06T06:16:16;3.33;;;1.52;;
15273;SDS011;7738;49.532;11.156;2022-07-06T06:18:46;6.00;;;2.25;;
15273;SDS011;7738;49.532;11.156;2022-07-06T06:21:17;8.95;;;2.03;;
15273;SDS011;7738;49.532;11.156;2022-07-06T06:23:50;3.67;;;1.45;;
15273;SDS011;7738;49.532;11.156;2022-07-06T06:26:20;3.95;;;1.52;;
15273;SDS011;7738;49.532;11.156;2022-07-06T06:28:50;3.75;;;1.10;;
15273;SDS011;7738;49.532;11.156;2022-07-06T06:31:20;2.10;;;1.30;;
15273;SDS011;7738;49.532;11.156;2022-07-06T06:33:51;1.05;;;0.90;;
15273;SDS011;7738;49.532;11.156;2022-07-06T06:36:22;3.42;;;0.80;;
15273;SDS011;7738;49.532;11.156;2022-07-06T06:38:54;2.17;;;0.70;;
15273;SDS011;7738;49.532;11.156;2022-07-06T06:41:25;3.80;;;0.85;;
15273;SDS011;7738;49.532;11.156;2022-07-06T06:43:55;2.50;;;0.63;;
15273;SDS011;7738;49.532;11.156;2022-07-06T06:46:28;2.20;;;0.60;;
15273;SDS011;7738;49.532;11.156;2022-07-06T06:48:58;5.55;;;1.17;;
15273;SDS011;7738;49.532;11.156;2022-07-06T06:51:29;1.58;;;0.70;;
15273;SDS011;7738;49.532;11.156;2022-07-06T06:54:02;1.95;;;0.68;;
15273;SDS011;7738;49.532;11.156;2022-07-06T06:56:32;1.53;;;0.53;;
15273;SDS011;7738;49.532;11.156;2022-07-06T06:59:02;1.20;;;0.63;;
15273;SDS011;7738;49.532;11.156;2022-07-06T07:01:43;1.75;;;0.60;;
15273;SDS011;7738;49.532;11.156;2022-07-06T07:04:21;4.80;;;0.60;;
15273;SDS011;7738;49.532;11.156;2022-07-06T07:06:52;1.40;;;0.47;;
15273;SDS011;7738;49.532;11.156;2022-07-06T07:09:25;2.55;;;0.75;;
15273;SDS011;7738;49.532;11.156;2022-07-06T07:11:55;2.90;;;0.57;;
15273;SDS011;7738;49.532;11.156;2022-07-06T07:14:24;2.30;;;1.27;;
15273;SDS011;7738;49.532;11.156;2022-07-06T07:16:55;5.90;;;2.53;;
15273;SDS011;7738;49.532;11.156;2022-07-06T07:19:25;2.90;;;1.10;;
15273;SDS011;7738;49.532;11.156;2022-07-06T07:21:55;3.08;;;1.10;;
15273;SDS011;7738;49.532;11.156;2022-07-06T07:24:27;2.60;;;0.77;;
15273;SDS011;7738;49.532;11.156;2022-07-06T07:26:57;2.05;;;0.57;;
15273;SDS011;7738;49.532;11.156;2022-07-06T07:29:27;2.28;;;0.63;;
15273;SDS011;7738;49.532;11.156;2022-07-06T07:31:57;1.20;;;0.40;;
15273;SDS011;7738;49.532;11.156;2022-07-06T07:34:28;2.25;;;0.57;;
15273;SDS011;7738;49.532;11.156;2022-07-06T07:36:58;2.45;;;0.43;;
15273;SDS011;7738;49.532;11.156;2022-07-06T07:39:31;4.65;;;0.68;;
15273;SDS011;7738;49.532;11.156;2022-07-06T07:42:01;1.17;;;0.50;;
15273;SDS011;7738;49.532;11.156;2022-07-06T07:44:31;1.73;;;0.38;;
15273;SDS011;7738;49.532;11.156;2022-07-06T07:47:01;5.10;;;0.65;;
15273;SDS011;7738;49.532;11.156;2022-07-06T07:49:32;1.13;;;0.60;;
15273;SDS011;7738;49.532;11.156;2022-07-06T07:52:02;1.35;;;0.68;;
15273;SDS011;7738;49.532;11.156;2022-07-06T07:54:35;3.78;;;0.50;;
15273;SDS011;7738;49.532;11.156;2022-07-06T07:57:13;1.65;;;0.60;;
15273;SDS011;7738;49.532;11.156;2022-07-06T07:59:43;1.98;;;0.60;;
15273;SDS011;7738;49.532;11.156;2022-07-06T08:02:13;1.95;;;0.60;;
15273;SDS011;7738;49.532;11.156;2022-07-06T08:04:44;1.58;;;0.70;;
15273;SDS011;7738;49.532;11.156;2022-07-06T08:07:14;1.48;;;0.50;;
15273;SDS011;7738;49.532;11.156;2022-07-06T08:09:47;0.95;;;0.63;;
15273;SDS011;7738;49.532;11.156;2022-07-06T08:12:17;3.25;;;1.17;;
15273;SDS011;7738;49.532;11.156;2022-07-06T08:14:47;1.48;;;0.60;;
15273;SDS011;7738;49.532;11.156;2022-07-06T08:17:17;4.07;;;0.77;;
15273;SDS011;7738;49.532;11.156;2022-07-06T08:19:46;2.60;;;0.38;;
15273;SDS011;7738;49.532;11.156;2022-07-06T08:22:16;2.85;;;0.50;;
15273;SDS011;7738;49.532;11.156;2022-07-06T08:24:49;1.80;;;0.70;;
15273;SDS011;7738;49.532;11.156;2022-07-06T08:27:19;1.92;;;0.38;;
15273;SDS011;7738;49.532;11.156;2022-07-06T08:29:50;1.35;;;0.30;;
15273;SDS011;7738;49.532;11.156;2022-07-06T08:32:20;1.75;;;0.57;;
15273;SDS011;7738;49.532;11.156;2022-07-06T08:35:10;3.55;;;0.30;;
15273;SDS011;7738;49.532;11.156;2022-07-06T08:37:41;2.13;;;0.28;;
15273;SDS011;7738;49.532;11.156;2022-07-06T08:40:14;2.83;;;0.60;;
15273;SDS011;7738;49.532;11.156;2022-07-06T08:42:45;3.30;;;0.35;;
15273;SDS011;7738;49.532;11.156;2022-07-06T08:45:21;0.65;;;0.35;;
15273;SDS011;7738;49.532;11.156;2022-07-06T08:47:53;4.20;;;0.43;;
15273;SDS011;7738;49.532;11.156;2022-07-06T08:50:24;1.15;;;0.50;;
15273;SDS011;7738;49.532;11.156;2022-07-06T08:52:55;0.90;;;0.28;;
15273;SDS011;7738;49.532;11.156;2022-07-06T08:55:28;5.03;;;0.90;;
15273;SDS011;7738;49.532;11.156;2022-07-06T08:57:58;2.85;;;0.40;;
15273;SDS011;7738;49.532;11.156;2022-07-06T09:00:28;2.00;;;0.50;;
15273;SDS011;7738;49.532;11.156;2022-07-06T09:02:59;2.95;;;0.55;;
15273;SDS011;7738;49.532;11.156;2022-07-06T09:05:29;1.67;;;0.38;;
15273;SDS011;7738;49.532;11.156;2022-07-06T09:08:01;1.60;;;0.60;;
15273;SDS011;7738;49.532;11.156;2022-07-06T09:10:34;1.20;;;0.50;;
15273;SDS011;7738;49.532;11.156;2022-07-06T09:13:05;0.57;;;0.40;;
15273;SDS011;7738;49.532;11.156;2022-07-06T09:15:37;1.77;;;0.35;;
15273;SDS011;7738;49.532;11.156;2022-07-06T09:18:08;3.72;;;0.40;;
15273;SDS011;7738;49.532;11.156;2022-07-06T09:20:38;0.82;;;0.40;;
15273;SDS011;7738;49.532;11.156;2022-07-06T09:23:10;2.90;;;0.65;;
15273;SDS011;7738;49.532;11.156;2022-07-06T09:25:49;1.10;;;0.50;;
15273;SDS011;7738;49.532;11.156;2022-07-06T09:28:19;4.93;;;0.60;;
15273;SDS011;7738;49.532;11.156;2022-07-06T09:30:50;1.05;;;0.50;;
15273;SDS011;7738;49.532;11.156;2022-07-06T09:33:32;2.65;;;0.65;;
15273;SDS011;7738;49.532;11.156;2022-07-06T09:36:02;2.15;;;0.50;;
15273;SDS011;7738;49.532;11.156;2022-07-06T09:38:33;1.63;;;0.52;;
15273;SDS011;7738;49.532;11.156;2022-07-06T09:41:06;3.35;;;0.47;;
15273;SDS011;7738;49.532;11.156;2022-07-06T09:43:36;2.22;;;0.55;;
15273;SDS011;7738;49.532;11.156;2022-07-06T09:46:06;2.35;;;0.57;;
15273;SDS011;7738;49.532;11.156;2022-07-06T09:48:36;1.88;;;0.45;;
15273;SDS011;7738;49.532;11.156;2022-07-06T09:51:07;1.23;;;0.35;;
15273;SDS011;7738;49.532;11.156;2022-07-06T09:53:37;1.55;;;0.40;;
15273;SDS011;7738;49.532;11.156;2022-07-06T09:56:10;1.50;;;0.57;;
15273;SDS011;7738;49.532;11.156;2022-07-06T09:58:40;2.65;;;0.52;;
15273;SDS011;7738;49.532;11.156;2022-07-06T10:01:28;5.03;;;0.70;;
15273;SDS011;7738;49.532;11.156;2022-07-06T10:03:59;1.27;;;0.50;;
15273;SDS011;7738;49.532;11.156;2022-07-06T10:06:29;1.23;;;0.30;;
15273;SDS011;7738;49.532;11.156;2022-07-06T10:09:00;1.55;;;0.60;;
15273;SDS011;7738;49.532;11.156;2022-07-06T10:11:39;1.95;;;0.30;;
15273;SDS011;7738;49.532;11.156;2022-07-06T10:14:11;2.40;;;0.43;;
15273;SDS011;7738;49.532;11.156;2022-07-06T10:16:44;1.40;;;0.60;;
15273;SDS011;7738;49.532;11.156;2022-07-06T10:19:16;0.90;;;0.52;;
15273;SDS011;7738;49.532;11.156;2022-07-06T10:21:48;3.05;;;0.45;;
15273;SDS011;7738;49.532;11.156;2022-07-06T10:24:19;2.30;;;0.32;;
15273;SDS011;7738;49.532;11.156;2022-07-06T10:26:52;2.20;;;0.70;;
15273;SDS011;7738;49.532;11.156;2022-07-06T10:31:53;2.35;;;0.50;;
15273;SDS011;7738;49.532;11.156;2022-07-06T10:34:24;1.73;;;0.82;;
15273;SDS011;7738;49.532;11.156;2022-07-06T10:36:54;1.83;;;0.70;;
15273;SDS011;7738;49.532;11.156;2022-07-06T10:39:34;2.03;;;0.35;;
15273;SDS011;7738;49.532;11.156;2022-07-06T10:45:13;0.60;;;0.30;;
15273;SDS011;7738;49.532;11.156;2022-07-06T10:47:43;2.67;;;0.32;;
15273;SDS011;7738;49.532;11.156;2022-07-06T10:50:14;1.95;;;0.22;;
15273;SDS011;7738;49.532;11.156;2022-07-06T10:52:47;1.00;;;0.30;;
15273;SDS011;7738;49.532;11.156;2022-07-06T10:55:28;3.28;;;0.60;;
15273;SDS011;7738;49.532;11.156;2022-07-06T10:58:01;0.98;;;0.30;;
15273;SDS011;7738;49.532;11.156;2022-07-06T11:03:31;1.60;;;0.50;;
15273;SDS011;7738;49.532;11.156;2022-07-06T11:06:02;2.07;;;0.37;;
15273;SDS011;7738;49.532;11.156;2022-07-06T11:08:50;2.58;;;0.73;;
15273;SDS011;7738;49.532;11.156;2022-07-06T11:11:22;3.97;;;0.50;;
15273;SDS011;7738;49.532;11.156;2022-07-06T11:13:57;1.88;;;0.63;;
15273;SDS011;7738;49.532;11.156;2022-07-06T11:16:31;1.02;;;0.30;;
15273;SDS011;7738;49.532;11.156;2022-07-06T11:19:04;1.58;;;0.30;;
15273;SDS011;7738;49.532;11.156;2022-07-06T11:24:08;3.38;;;0.40;;
15273;SDS011;7738;49.532;11.156;2022-07-06T11:26:41;0.85;;;0.65;;
15273;SDS011;7738;49.532;11.156;2022-07-06T11:29:15;2.13;;;0.50;;
15273;SDS011;7738;49.532;11.156;2022-07-06T11:31:48;2.00;;;0.30;;
15273;SDS011;7738;49.532;11.156;2022-07-06T11:34:20;3.20;;;0.30;;
15273;SDS011;7738;49.532;11.156;2022-07-06T11:36:54;3.42;;;0.90;;
15273;SDS011;7738;49.532;11.156;2022-07-06T11:39:26;5.97;;;0.40;;
15273;SDS011;7738;49.532;11.156;2022-07-06T11:41:57;1.40;;;0.35;;
15273;SDS011;7738;49.532;11.156;2022-07-06T11:44:30;2.97;;;0.57;;
15273;SDS011;7738;49.532;11.156;2022-07-06T11:49:31;1.90;;;0.25;;
15273;SDS011;7738;49.532;11.156;2022-07-06T11:52:04;2.40;;;0.60;;
15273;SDS011;7738;49.532;11.156;2022-07-06T11:54:35;3.45;;;0.50;;
15273;SDS011;7738;49.532;11.156;2022-07-06T11:57:07;0.88;;;0.13;;
15273;SDS011;7738;49.532;11.156;2022-07-06T11:59:41;0.70;;;0.38;;
15273;SDS011;7738;49.532;11.156;2022-07-06T12:02:14;2.55;;;0.32;;
15273;SDS011;7738;49.532;11.156;2022-07-06T12:04:45;2.30;;;0.40;;
15273;SDS011;7738;49.532;11.156;2022-07-06T12:07:17;3.42;;;0.55;;
15273;SDS011;7738;49.532;11.156;2022-07-06T12:09:47;1.73;;;0.30;;
15273;SDS011;7738;49.532;11.156;2022-07-06T12:12:17;2.50;;;0.30;;
15273;SDS011;7738;49.532;11.156;2022-07-06T12:14:51;3.92;;;0.40;;
15273;SDS011;7738;49.532;11.156;2022-07-06T12:17:22;1.17;;;0.20;;
15273;SDS011;7738;49.532;11.156;2022-07-06T12:19:53;3.72;;;0.50;;
15273;SDS011;7738;49.532;11.156;2022-07-06T12:22:24;1.05;;;0.30;;
15273;SDS011;7738;49.532;11.156;2022-07-06T12:24:54;1.15;;;0.28;;
15273;SDS011;7738;49.532;11.156;2022-07-06T12:27:33;2.13;;;0.20;;
15273;SDS011;7738;49.532;11.156;2022-07-06T12:30:13;1.92;;;0.15;;
15273;SDS011;7738;49.532;11.156;2022-07-06T12:35:34;0.70;;;0.20;;
15273;SDS011;7738;49.532;11.156;2022-07-06T12:38:04;0.65;;;0.30;;
15273;SDS011;7738;49.532;11.156;2022-07-06T12:40:35;1.27;;;0.28;;
15273;SDS011;7738;49.532;11.156;2022-07-06T12:43:05;1.30;;;0.20;;
15273;SDS011;7738;49.532;11.156;2022-07-06T12:45:38;2.03;;;0.22;;
15273;SDS011;7738;49.532;11.156;2022-07-06T12:48:12;0.82;;;0.20;;
15273;SDS011;7738;49.532;11.156;2022-07-06T12:50:42;3.00;;;0.20;;
15273;SDS011;7738;49.532;11.156;2022-07-06T12:53:23;1.85;;;0.35;;
15273;SDS011;7738;49.532;11.156;2022-07-06T12:56:07;0.67;;;0.10;;
15273;SDS011;7738;49.532;11.156;2022-07-06T12:58:37;3.60;;;0.95;;
15273;SDS011;7738;49.532;11.156;2022-07-06T13:01:16;0.88;;;0.15;;
15273;SDS011;7738;49.532;11.156;2022-07-06T13:03:47;1.88;;;0.22;;
15273;SDS011;7738;49.532;11.156;2022-07-06T13:06:26;0.85;;;0.17;;
15273;SDS011;7738;49.532;11.156;2022-07-06T13:08:58;0.90;;;0.20;;
15273;SDS011;7738;49.532;11.156;2022-07-06T13:11:28;1.52;;;0.20;;
15273;SDS011;7738;49.532;11.156;2022-07-06T13:14:00;1.13;;;0.20;;
15273;SDS011;7738;49.532;11.156;2022-07-06T13:16:33;0.95;;;0.20;;
15273;SDS011;7738;49.532;11.156;2022-07-06T13:19:03;0.65;;;0.28;;
15273;SDS011;7738;49.532;11.156;2022-07-06T13:21:33;0.90;;;0.10;;
15273;SDS011;7738;49.532;11.156;2022-07-06T13:24:04;1.50;;;0.20;;
15273;SDS011;7738;49.532;11.156;2022-07-06T13:26:35;1.02;;;0.30;;
15273;SDS011;7738;49.532;11.156;2022-07-06T13:29:05;3.65;;;0.30;;
15273;SDS011;7738;49.532;11.156;2022-07-06T13:31:40;0.77;;;0.13;;
15273;SDS011;7738;49.532;11.156;2022-07-06T13:34:10;1.00;;;0.20;;
15273;SDS011;7738;49.532;11.156;2022-07-06T13:36:40;1.40;;;0.30;;
15273;SDS011;7738;49.532;11.156;2022-07-06T13:39:11;2.33;;;0.32;;
15273;SDS011;7738;49.532;11.156;2022-07-06T13:41:41;3.42;;;0.38;;
15273;SDS011;7738;49.532;11.156;2022-07-06T13:44:12;2.95;;;0.30;;
15273;SDS011;7738;49.532;11.156;2022-07-06T13:46:45;4.82;;;0.28;;
15273;SDS011;7738;49.532;11.156;2022-07-06T13:49:15;1.70;;;0.20;;
15273;SDS011;7738;49.532;11.156;2022-07-06T13:51:45;1.00;;;0.30;;
15273;SDS011;7738;49.532;11.156;2022-07-06T13:54:15;1.20;;;0.28;;
15273;SDS011;7738;49.532;11.156;2022-07-06T13:56:46;1.40;;;0.13;;
15273;SDS011;7738;49.532;11.156;2022-07-06T13:59:16;2.33;;;0.32;;
15273;SDS011;7738;49.532;11.156;2022-07-06T14:01:49;1.90;;;0.20;;
15273;SDS011;7738;49.532;11.156;2022-07-06T14:04:19;0.70;;;0.10;;
15273;SDS011;7738;49.532;11.156;2022-07-06T14:06:49;2.67;;;0.82;;
15273;SDS011;7738;49.532;11.156;2022-07-06T14:09:19;1.17;;;0.20;;
15273;SDS011;7738;49.532;11.156;2022-07-06T14:11:50;1.05;;;0.20;;
15273;SDS011;7738;49.532;11.156;2022-07-06T14:14:20;1.13;;;0.20;;
15273;SDS011;7738;49.532;11.156;2022-07-06T14:16:53;0.88;;;0.05;;
15273;SDS011;7738;49.532;11.156;2022-07-06T14:19:24;0.82;;;0.25;;
15273;SDS011;7738;49.532;11.156;2022-07-06T14:21:55;1.88;;;0.10;;
15273;SDS011;7738;49.532;11.156;2022-07-06T14:24:26;4.10;;;0.20;;
15273;SDS011;7738;49.532;11.156;2022-07-06T14:26:58;2.13;;;0.20;;
15273;SDS011;7738;49.532;11.156;2022-07-06T14:29:31;0.95;;;0.28;;
15273;SDS011;7738;49.532;11.156;2022-07-06T14:32:04;1.80;;;0.10;;
15273;SDS011;7738;49.532;11.156;2022-07-06T14:34:35;1.33;;;0.30;;
15273;SDS011;7738;49.532;11.156;2022-07-06T14:37:05;0.80;;;0.10;;
15273;SDS011;7738;49.532;11.156;2022-07-06T14:39:35;0.80;;;0.20;;
15273;SDS011;7738;49.532;11.156;2022-07-06T14:42:06;2.17;;;0.28;;
15273;SDS011;7738;49.532;11.156;2022-07-06T14:44:36;4.13;;;0.15;;
15273;SDS011;7738;49.532;11.156;2022-07-06T14:47:09;0.88;;;0.28;;
15273;SDS011;7738;49.532;11.156;2022-07-06T14:49:40;0.57;;;0.10;;
15273;SDS011;7738;49.532;11.156;2022-07-06T14:52:10;1.23;;;0.10;;
15273;SDS011;7738;49.532;11.156;2022-07-06T14:54:40;2.92;;;0.17;;
15273;SDS011;7738;49.532;11.156;2022-07-06T14:57:10;0.93;;;0.28;;
15273;SDS011;7738;49.532;11.156;2022-07-06T14:59:41;0.50;;;0.20;;
15273;SDS011;7738;49.532;11.156;2022-07-06T15:02:14;0.90;;;0.20;;
15273;SDS011;7738;49.532;11.156;2022-07-06T15:04:44;4.28;;;0.20;;
15273;SDS011;7738;49.532;11.156;2022-07-06T15:07:14;3.58;;;0.60;;
15273;SDS011;7738;49.532;11.156;2022-07-06T15:09:44;1.35;;;0.22;;
15273;SDS011;7738;49.532;11.156;2022-07-06T15:12:15;1.10;;;0.10;;
15273;SDS011;7738;49.532;11.156;2022-07-06T15:14:45;0.52;;;0.10;;
15273;SDS011;7738;49.532;11.156;2022-07-06T15:17:18;1.42;;;0.17;;
15273;SDS011;7738;49.532;11.156;2022-07-06T15:19:48;1.70;;;0.30;;
15273;SDS011;7738;49.532;11.156;2022-07-06T15:22:19;4.80;;;0.20;;
15273;SDS011;7738;49.532;11.156;2022-07-06T15:24:50;1.05;;;0.30;;
15273;SDS011;7738;49.532;11.156;2022-07-06T15:27:20;2.55;;;0.25;;
15273;SDS011;7738;49.532;11.156;2022-07-06T15:29:51;0.93;;;0.20;;
15273;SDS011;7738;49.532;11.156;2022-07-06T15:32:24;1.73;;;0.20;;
15273;SDS011;7738;49.532;11.156;2022-07-06T15:34:54;2.28;;;0.20;;